sensor_id;sensor_type;location;lat;lon;timestamp;P1;durP1;ratioP1;P2;durP2;ratioP2
48751;SDS011;34544;48.836;9.174;2023-02-13T00:02:05;26.70;;;15.07;;
48751;SDS011;34544;48.836;9.174;2023-02-13T00:04:31;28.05;;;15.43;;
48751;SDS011;34544;48.836;9.174;2023-02-13T00:06:57;25.73;;;14.98;;
48751;SDS011;34544;48.836;9.174;2023-02-13T00:09:22;26.70;;;14.45;;
48751;SDS011;34544;48.836;9.174;2023-02-13T00:11:48;27.65;;;15.32;;
48751;SDS011;34544;48.836;9.174;2023-02-13T00:14:13;30.85;;;14.70;;
48751;SDS011;34544;48.836;9.174;2023-02-13T00:16:39;23.90;;;14.02;;
48751;SDS011;34544;48.836;9.174;2023-02-13T00:19:05;23.27;;;14.40;;
48751;SDS011;34544;48.836;9.174;2023-02-13T00:21:30;28.60;;;14.88;;
48751;SDS011;34544;48.836;9.174;2023-02-13T00:23:56;23.45;;;14.98;;
48751;SDS011;34544;48.836;9.174;2023-02-13T00:26:22;30.73;;;16.58;;
48751;SDS011;34544;48.836;9.174;2023-02-13T00:28:47;25.58;;;15.18;;
48751;SDS011;34544;48.836;9.174;2023-02-13T00:31:14;31.15;;;15.88;;
48751;SDS011;34544;48.836;9.174;2023-02-13T00:33:41;26.65;;;15.38;;
48751;SDS011;34544;48.836;9.174;2023-02-13T00:36:10;25.83;;;14.73;;
48751;SDS011;34544;48.836;9.174;2023-02-13T00:38:37;25.23;;;14.52;;
48751;SDS011;34544;48.836;9.174;2023-02-13T00:41:04;25.25;;;14.43;;
48751;SDS011;34544;48.836;9.174;2023-02-13T00:43:30;24.40;;;15.60;;
48751;SDS011;34544;48.836;9.174;2023-02-13T00:45:56;31.67;;;15.90;;
48751;SDS011;34544;48.836;9.174;2023-02-13T00:48:25;26.80;;;15.15;;
48751;SDS011;34544;48.836;9.174;2023-02-13T00:50:51;28.17;;;16.73;;
48751;SDS011;34544;48.836;9.174;2023-02-13T00:53:17;30.70;;;16.17;;
48751;SDS011;34544;48.836;9.174;2023-02-13T00:55:46;23.95;;;15.07;;
48751;SDS011;34544;48.836;9.174;2023-02-13T00:58:12;26.67;;;14.98;;
48751;SDS011;34544;48.836;9.174;2023-02-13T01:00:38;24.83;;;14.63;;
48751;SDS011;34544;48.836;9.174;2023-02-13T01:03:04;26.07;;;14.47;;
48751;SDS011;34544;48.836;9.174;2023-02-13T01:05:30;26.48;;;16.08;;
48751;SDS011;34544;48.836;9.174;2023-02-13T01:07:56;26.85;;;16.45;;
48751;SDS011;34544;48.836;9.174;2023-02-13T01:10:22;31.75;;;14.88;;
48751;SDS011;34544;48.836;9.174;2023-02-13T01:12:48;26.60;;;15.00;;
48751;SDS011;34544;48.836;9.174;2023-02-13T01:15:14;26.48;;;16.48;;
48751;SDS011;34544;48.836;9.174;2023-02-13T01:17:39;27.02;;;16.08;;
48751;SDS011;34544;48.836;9.174;2023-02-13T01:20:06;31.08;;;17.23;;
48751;SDS011;34544;48.836;9.174;2023-02-13T01:22:33;28.00;;;15.88;;
48751;SDS011;34544;48.836;9.174;2023-02-13T01:24:58;34.80;;;18.40;;
48751;SDS011;34544;48.836;9.174;2023-02-13T01:27:28;24.20;;;15.52;;
48751;SDS011;34544;48.836;9.174;2023-02-13T01:29:54;27.02;;;16.50;;
48751;SDS011;34544;48.836;9.174;2023-02-13T01:32:20;26.05;;;15.45;;
48751;SDS011;34544;48.836;9.174;2023-02-13T01:34:46;31.08;;;16.38;;
48751;SDS011;34544;48.836;9.174;2023-02-13T01:37:12;29.30;;;15.77;;
48751;SDS011;34544;48.836;9.174;2023-02-13T01:39:38;27.63;;;15.77;;
48751;SDS011;34544;48.836;9.174;2023-02-13T01:42:04;30.48;;;15.90;;
48751;SDS011;34544;48.836;9.174;2023-02-13T01:44:44;31.42;;;17.08;;
48751;SDS011;34544;48.836;9.174;2023-02-13T01:47:25;29.30;;;15.05;;
48751;SDS011;34544;48.836;9.174;2023-02-13T01:50:02;32.60;;;14.93;;
48751;SDS011;34544;48.836;9.174;2023-02-13T01:52:37;28.65;;;15.27;;
48751;SDS011;34544;48.836;9.174;2023-02-13T01:55:05;26.77;;;14.77;;
48751;SDS011;34544;48.836;9.174;2023-02-13T01:57:32;33.83;;;15.53;;
48751;SDS011;34544;48.836;9.174;2023-02-13T02:00:04;25.83;;;14.83;;
48751;SDS011;34544;48.836;9.174;2023-02-13T02:02:44;30.03;;;15.70;;
48751;SDS011;34544;48.836;9.174;2023-02-13T02:05:18;26.73;;;15.47;;
48751;SDS011;34544;48.836;9.174;2023-02-13T02:07:46;29.92;;;15.15;;
48751;SDS011;34544;48.836;9.174;2023-02-13T02:10:16;28.23;;;14.60;;
48751;SDS011;34544;48.836;9.174;2023-02-13T02:13:06;28.17;;;15.05;;
48751;SDS011;34544;48.836;9.174;2023-02-13T02:15:38;24.03;;;14.03;;
48751;SDS011;34544;48.836;9.174;2023-02-13T02:18:16;24.30;;;15.30;;
48751;SDS011;34544;48.836;9.174;2023-02-13T02:26:13;25.87;;;14.93;;
48751;SDS011;34544;48.836;9.174;2023-02-13T02:29:05;26.00;;;15.23;;
48751;SDS011;34544;48.836;9.174;2023-02-13T02:34:35;27.23;;;15.17;;
48751;SDS011;34544;48.836;9.174;2023-02-13T02:46:07;29.07;;;15.90;;
48751;SDS011;34544;48.836;9.174;2023-02-13T02:49:04;26.67;;;15.10;;
48751;SDS011;34544;48.836;9.174;2023-02-13T02:52:02;27.80;;;14.73;;
48751;SDS011;34544;48.836;9.174;2023-02-13T02:54:59;32.00;;;15.25;;
48751;SDS011;34544;48.836;9.174;2023-02-13T02:57:41;28.10;;;15.53;;
48751;SDS011;34544;48.836;9.174;2023-02-13T03:00:31;26.43;;;14.17;;
48751;SDS011;34544;48.836;9.174;2023-02-13T03:03:19;27.40;;;14.23;;
48751;SDS011;34544;48.836;9.174;2023-02-13T03:06:29;31.30;;;14.87;;
48751;SDS011;34544;48.836;9.174;2023-02-13T03:09:05;28.23;;;15.37;;
48751;SDS011;34544;48.836;9.174;2023-02-13T03:11:58;30.07;;;14.83;;
48751;SDS011;34544;48.836;9.174;2023-02-13T03:14:44;26.67;;;14.27;;
48751;SDS011;34544;48.836;9.174;2023-02-13T03:17:10;29.30;;;15.03;;
48751;SDS011;34544;48.836;9.174;2023-02-13T03:20:20;28.30;;;14.70;;
48751;SDS011;34544;48.836;9.174;2023-02-13T03:26:31;23.20;;;14.07;;
48751;SDS011;34544;48.836;9.174;2023-02-13T03:34:54;28.15;;;14.32;;
48751;SDS011;34544;48.836;9.174;2023-02-13T03:37:47;34.10;;;15.03;;
48751;SDS011;34544;48.836;9.174;2023-02-13T03:43:31;26.53;;;14.43;;
48751;SDS011;34544;48.836;9.174;2023-02-13T03:46:05;29.33;;;14.60;;
48751;SDS011;34544;48.836;9.174;2023-02-13T03:48:33;23.53;;;13.83;;
48751;SDS011;34544;48.836;9.174;2023-02-13T03:51:24;24.97;;;14.50;;
48751;SDS011;34544;48.836;9.174;2023-02-13T03:54:00;29.07;;;14.27;;
48751;SDS011;34544;48.836;9.174;2023-02-13T03:56:35;35.90;;;15.93;;
48751;SDS011;34544;48.836;9.174;2023-02-13T03:59:25;27.80;;;14.10;;
48751;SDS011;34544;48.836;9.174;2023-02-13T04:02:09;29.80;;;16.25;;
48751;SDS011;34544;48.836;9.174;2023-02-13T04:04:58;30.17;;;14.20;;
48751;SDS011;34544;48.836;9.174;2023-02-13T04:07:33;30.07;;;15.10;;
48751;SDS011;34544;48.836;9.174;2023-02-13T04:10:04;26.07;;;14.83;;
48751;SDS011;34544;48.836;9.174;2023-02-13T04:12:35;29.87;;;16.10;;
48751;SDS011;34544;48.836;9.174;2023-02-13T04:17:42;29.87;;;14.27;;
48751;SDS011;34544;48.836;9.174;2023-02-13T04:20:15;29.13;;;15.87;;
48751;SDS011;34544;48.836;9.174;2023-02-13T04:22:45;29.80;;;14.17;;
48751;SDS011;34544;48.836;9.174;2023-02-13T04:25:11;29.47;;;14.37;;
48751;SDS011;34544;48.836;9.174;2023-02-13T04:27:40;28.17;;;14.33;;
48751;SDS011;34544;48.836;9.174;2023-02-13T04:30:05;29.40;;;14.80;;
48751;SDS011;34544;48.836;9.174;2023-02-13T04:32:33;24.17;;;14.47;;
48751;SDS011;34544;48.836;9.174;2023-02-13T04:34:59;31.07;;;14.43;;
48751;SDS011;34544;48.836;9.174;2023-02-13T04:37:24;24.70;;;14.47;;
48751;SDS011;34544;48.836;9.174;2023-02-13T04:39:50;24.60;;;13.40;;
48751;SDS011;34544;48.836;9.174;2023-02-13T04:42:16;28.33;;;15.70;;
48751;SDS011;34544;48.836;9.174;2023-02-13T04:44:41;24.47;;;14.23;;
48751;SDS011;34544;48.836;9.174;2023-02-13T04:47:07;29.20;;;16.47;;
48751;SDS011;34544;48.836;9.174;2023-02-13T04:49:32;25.10;;;14.50;;
48751;SDS011;34544;48.836;9.174;2023-02-13T04:51:58;30.73;;;16.40;;
48751;SDS011;34544;48.836;9.174;2023-02-13T04:54:24;29.90;;;15.70;;
48751;SDS011;34544;48.836;9.174;2023-02-13T04:56:49;26.70;;;14.77;;
48751;SDS011;34544;48.836;9.174;2023-02-13T04:59:15;29.90;;;15.07;;
48751;SDS011;34544;48.836;9.174;2023-02-13T05:01:40;33.50;;;17.03;;
48751;SDS011;34544;48.836;9.174;2023-02-13T05:04:06;35.07;;;17.73;;
48751;SDS011;34544;48.836;9.174;2023-02-13T05:06:32;34.70;;;17.23;;
48751;SDS011;34544;48.836;9.174;2023-02-13T05:08:57;35.80;;;17.53;;
48751;SDS011;34544;48.836;9.174;2023-02-13T05:11:23;34.07;;;17.37;;
48751;SDS011;34544;48.836;9.174;2023-02-13T05:13:48;33.60;;;18.70;;
48751;SDS011;34544;48.836;9.174;2023-02-13T05:16:14;31.97;;;17.50;;
48751;SDS011;34544;48.836;9.174;2023-02-13T05:18:40;35.20;;;19.17;;
48751;SDS011;34544;48.836;9.174;2023-02-13T05:21:05;33.87;;;17.77;;
48751;SDS011;34544;48.836;9.174;2023-02-13T05:23:50;38.63;;;19.57;;
48751;SDS011;34544;48.836;9.174;2023-02-13T05:26:15;34.50;;;18.60;;
48751;SDS011;34544;48.836;9.174;2023-02-13T05:28:41;34.47;;;19.07;;
48751;SDS011;34544;48.836;9.174;2023-02-13T05:31:25;35.77;;;20.47;;
48751;SDS011;34544;48.836;9.174;2023-02-13T05:33:51;42.27;;;21.03;;
48751;SDS011;34544;48.836;9.174;2023-02-13T05:36:16;42.20;;;21.57;;
48751;SDS011;34544;48.836;9.174;2023-02-13T05:38:42;41.00;;;21.40;;
48751;SDS011;34544;48.836;9.174;2023-02-13T05:41:08;40.00;;;21.73;;
48751;SDS011;34544;48.836;9.174;2023-02-13T05:43:33;39.03;;;21.63;;
48751;SDS011;34544;48.836;9.174;2023-02-13T05:46:00;36.57;;;19.47;;
48751;SDS011;34544;48.836;9.174;2023-02-13T05:48:27;37.97;;;20.47;;
48751;SDS011;34544;48.836;9.174;2023-02-13T05:50:52;38.60;;;20.23;;
48751;SDS011;34544;48.836;9.174;2023-02-13T05:53:18;38.40;;;19.97;;
48751;SDS011;34544;48.836;9.174;2023-02-13T05:55:44;36.57;;;19.73;;
48751;SDS011;34544;48.836;9.174;2023-02-13T05:58:10;36.97;;;19.80;;
48751;SDS011;34544;48.836;9.174;2023-02-13T06:00:36;42.63;;;21.63;;
48751;SDS011;34544;48.836;9.174;2023-02-13T06:03:01;44.67;;;22.13;;
48751;SDS011;34544;48.836;9.174;2023-02-13T06:05:27;41.43;;;23.27;;
48751;SDS011;34544;48.836;9.174;2023-02-13T06:07:53;46.60;;;22.40;;
48751;SDS011;34544;48.836;9.174;2023-02-13T06:10:18;44.33;;;23.10;;
48751;SDS011;34544;48.836;9.174;2023-02-13T06:12:44;42.17;;;22.67;;
48751;SDS011;34544;48.836;9.174;2023-02-13T06:15:10;43.60;;;23.47;;
48751;SDS011;34544;48.836;9.174;2023-02-13T06:17:35;44.63;;;22.63;;
48751;SDS011;34544;48.836;9.174;2023-02-13T06:20:01;42.13;;;21.70;;
48751;SDS011;34544;48.836;9.174;2023-02-13T06:22:27;40.57;;;20.03;;
48751;SDS011;34544;48.836;9.174;2023-02-13T06:24:52;36.83;;;19.50;;
48751;SDS011;34544;48.836;9.174;2023-02-13T06:27:18;35.03;;;19.27;;
48751;SDS011;34544;48.836;9.174;2023-02-13T06:29:44;38.40;;;20.27;;
48751;SDS011;34544;48.836;9.174;2023-02-13T06:32:09;38.90;;;19.23;;
48751;SDS011;34544;48.836;9.174;2023-02-13T06:34:35;41.63;;;20.07;;
48751;SDS011;34544;48.836;9.174;2023-02-13T06:37:01;39.30;;;19.13;;
48751;SDS011;34544;48.836;9.174;2023-02-13T06:39:26;28.67;;;15.53;;
48751;SDS011;34544;48.836;9.174;2023-02-13T06:41:52;38.90;;;17.37;;
48751;SDS011;34544;48.836;9.174;2023-02-13T06:44:18;31.17;;;17.90;;
48751;SDS011;34544;48.836;9.174;2023-02-13T06:46:43;32.43;;;17.87;;
48751;SDS011;34544;48.836;9.174;2023-02-13T06:49:09;42.40;;;18.80;;
48751;SDS011;34544;48.836;9.174;2023-02-13T06:51:34;35.80;;;16.53;;
48751;SDS011;34544;48.836;9.174;2023-02-13T06:54:00;34.33;;;16.90;;
48751;SDS011;34544;48.836;9.174;2023-02-13T06:56:26;33.27;;;15.30;;
48751;SDS011;34544;48.836;9.174;2023-02-13T06:58:52;30.93;;;17.00;;
48751;SDS011;34544;48.836;9.174;2023-02-13T07:01:17;37.03;;;17.60;;
48751;SDS011;34544;48.836;9.174;2023-02-13T07:03:43;38.87;;;17.90;;
48751;SDS011;34544;48.836;9.174;2023-02-13T07:06:09;32.50;;;17.83;;
48751;SDS011;34544;48.836;9.174;2023-02-13T07:08:40;32.87;;;17.37;;
48751;SDS011;34544;48.836;9.174;2023-02-13T07:11:06;35.37;;;18.37;;
48751;SDS011;34544;48.836;9.174;2023-02-13T07:13:31;31.43;;;16.20;;
48751;SDS011;34544;48.836;9.174;2023-02-13T07:15:59;34.35;;;16.15;;
48751;SDS011;34544;48.836;9.174;2023-02-13T07:18:25;31.30;;;16.23;;
48751;SDS011;34544;48.836;9.174;2023-02-13T07:20:50;37.60;;;16.97;;
48751;SDS011;34544;48.836;9.174;2023-02-13T07:23:16;27.67;;;16.10;;
48751;SDS011;34544;48.836;9.174;2023-02-13T07:25:42;28.33;;;15.48;;
48751;SDS011;34544;48.836;9.174;2023-02-13T07:28:08;25.75;;;15.82;;
48751;SDS011;34544;48.836;9.174;2023-02-13T07:30:34;25.88;;;13.70;;
48751;SDS011;34544;48.836;9.174;2023-02-13T07:33:00;23.92;;;13.02;;
48751;SDS011;34544;48.836;9.174;2023-02-13T07:35:26;22.98;;;12.02;;
48751;SDS011;34544;48.836;9.174;2023-02-13T07:37:52;18.42;;;11.23;;
48751;SDS011;34544;48.836;9.174;2023-02-13T07:40:19;24.80;;;13.40;;
48751;SDS011;34544;48.836;9.174;2023-02-13T07:42:45;21.98;;;13.23;;
48751;SDS011;34544;48.836;9.174;2023-02-13T07:45:10;21.88;;;13.13;;
48751;SDS011;34544;48.836;9.174;2023-02-13T07:47:36;25.42;;;13.27;;
48751;SDS011;34544;48.836;9.174;2023-02-13T07:50:02;21.92;;;12.38;;
48751;SDS011;34544;48.836;9.174;2023-02-13T07:52:30;22.73;;;12.68;;
48751;SDS011;34544;48.836;9.174;2023-02-13T07:54:56;24.73;;;13.13;;
48751;SDS011;34544;48.836;9.174;2023-02-13T07:57:22;32.10;;;14.10;;
48751;SDS011;34544;48.836;9.174;2023-02-13T07:59:48;23.48;;;14.20;;
48751;SDS011;34544;48.836;9.174;2023-02-13T08:02:14;25.52;;;14.23;;
48751;SDS011;34544;48.836;9.174;2023-02-13T08:04:40;19.90;;;12.95;;
48751;SDS011;34544;48.836;9.174;2023-02-13T08:07:10;25.40;;;14.25;;
48751;SDS011;34544;48.836;9.174;2023-02-13T08:09:36;29.17;;;15.77;;
48751;SDS011;34544;48.836;9.174;2023-02-13T08:12:21;25.58;;;15.52;;
48751;SDS011;34544;48.836;9.174;2023-02-13T08:14:47;29.55;;;13.77;;
48751;SDS011;34544;48.836;9.174;2023-02-13T08:17:13;21.73;;;13.93;;
48751;SDS011;34544;48.836;9.174;2023-02-13T08:19:38;25.10;;;15.75;;
48751;SDS011;34544;48.836;9.174;2023-02-13T08:22:04;27.25;;;15.95;;
48751;SDS011;34544;48.836;9.174;2023-02-13T08:24:31;24.60;;;15.68;;
48751;SDS011;34544;48.836;9.174;2023-02-13T08:26:56;21.30;;;14.45;;
48751;SDS011;34544;48.836;9.174;2023-02-13T08:29:22;22.13;;;14.02;;
48751;SDS011;34544;48.836;9.174;2023-02-13T08:31:48;22.20;;;15.73;;
48751;SDS011;34544;48.836;9.174;2023-02-13T08:34:14;22.40;;;14.90;;
48751;SDS011;34544;48.836;9.174;2023-02-13T08:36:40;25.45;;;15.32;;
48751;SDS011;34544;48.836;9.174;2023-02-13T08:39:05;22.48;;;15.20;;
48751;SDS011;34544;48.836;9.174;2023-02-13T08:41:33;30.45;;;14.50;;
48751;SDS011;34544;48.836;9.174;2023-02-13T08:43:59;21.25;;;14.63;;
48751;SDS011;34544;48.836;9.174;2023-02-13T08:46:25;20.40;;;14.45;;
48751;SDS011;34544;48.836;9.174;2023-02-13T08:48:51;23.67;;;14.90;;
48751;SDS011;34544;48.836;9.174;2023-02-13T08:51:16;21.63;;;14.32;;
48751;SDS011;34544;48.836;9.174;2023-02-13T08:53:42;21.70;;;14.40;;
48751;SDS011;34544;48.836;9.174;2023-02-13T08:56:08;24.05;;;15.00;;
48751;SDS011;34544;48.836;9.174;2023-02-13T08:58:34;22.08;;;15.18;;
48751;SDS011;34544;48.836;9.174;2023-02-13T09:01:02;20.95;;;14.15;;
48751;SDS011;34544;48.836;9.174;2023-02-13T09:03:29;24.65;;;14.73;;
48751;SDS011;34544;48.836;9.174;2023-02-13T09:05:57;24.83;;;14.98;;
48751;SDS011;34544;48.836;9.174;2023-02-13T09:08:24;22.38;;;14.82;;
48751;SDS011;34544;48.836;9.174;2023-02-13T09:10:54;20.33;;;14.55;;
48751;SDS011;34544;48.836;9.174;2023-02-13T09:13:25;18.80;;;13.95;;
48751;SDS011;34544;48.836;9.174;2023-02-13T09:15:53;23.88;;;13.95;;
48751;SDS011;34544;48.836;9.174;2023-02-13T09:18:18;20.05;;;13.57;;
48751;SDS011;34544;48.836;9.174;2023-02-13T09:20:44;22.50;;;14.20;;
48751;SDS011;34544;48.836;9.174;2023-02-13T09:23:10;21.42;;;14.27;;
48751;SDS011;34544;48.836;9.174;2023-02-13T09:25:35;24.70;;;15.70;;
48751;SDS011;34544;48.836;9.174;2023-02-13T09:28:01;20.15;;;12.52;;
48751;SDS011;34544;48.836;9.174;2023-02-13T09:30:26;31.25;;;13.20;;
48751;SDS011;34544;48.836;9.174;2023-02-13T09:32:52;21.63;;;13.77;;
48751;SDS011;34544;48.836;9.174;2023-02-13T09:35:19;18.80;;;13.82;;
48751;SDS011;34544;48.836;9.174;2023-02-13T09:37:45;22.48;;;13.80;;
48751;SDS011;34544;48.836;9.174;2023-02-13T09:43:45;24.77;;;14.80;;
48751;SDS011;34544;48.836;9.174;2023-02-13T09:45:54;19.77;;;13.00;;
48751;SDS011;34544;48.836;9.174;2023-02-13T09:48:26;19.00;;;13.68;;
48751;SDS011;34544;48.836;9.174;2023-02-13T09:50:55;14.80;;;10.68;;
48751;SDS011;34544;48.836;9.174;2023-02-13T09:53:23;19.55;;;14.68;;
48751;SDS011;34544;48.836;9.174;2023-02-13T09:55:56;18.98;;;13.10;;
48751;SDS011;34544;48.836;9.174;2023-02-13T10:04:16;17.75;;;11.23;;
48751;SDS011;34544;48.836;9.174;2023-02-13T10:06:45;13.95;;;11.77;;
48751;SDS011;34544;48.836;9.174;2023-02-13T10:15:11;17.23;;;11.52;;
48751;SDS011;34544;48.836;9.174;2023-02-13T10:17:57;15.50;;;11.75;;
48751;SDS011;34544;48.836;9.174;2023-02-13T10:20:45;13.15;;;10.25;;
48751;SDS011;34544;48.836;9.174;2023-02-13T10:23:17;13.10;;;11.27;;
48751;SDS011;34544;48.836;9.174;2023-02-13T10:28:45;14.07;;;10.50;;
48751;SDS011;34544;48.836;9.174;2023-02-13T10:31:20;11.38;;;10.02;;
48751;SDS011;34544;48.836;9.174;2023-02-13T10:33:49;11.40;;;10.02;;
48751;SDS011;34544;48.836;9.174;2023-02-13T10:36:29;13.73;;;10.35;;
48751;SDS011;34544;48.836;9.174;2023-02-13T10:38:59;13.75;;;9.50;;
48751;SDS011;34544;48.836;9.174;2023-02-13T10:50:02;13.02;;;10.15;;
48751;SDS011;34544;48.836;9.174;2023-02-13T10:55:44;14.02;;;9.82;;
48751;SDS011;34544;48.836;9.174;2023-02-13T11:03:28;15.25;;;9.77;;
48751;SDS011;34544;48.836;9.174;2023-02-13T11:05:55;13.48;;;9.82;;
48751;SDS011;34544;48.836;9.174;2023-02-13T11:08:24;12.63;;;9.18;;
48751;SDS011;34544;48.836;9.174;2023-02-13T11:10:56;15.05;;;10.35;;
48751;SDS011;34544;48.836;9.174;2023-02-13T11:13:23;11.57;;;9.60;;
48751;SDS011;34544;48.836;9.174;2023-02-13T11:16:01;14.38;;;8.77;;
48751;SDS011;34544;48.836;9.174;2023-02-13T11:18:33;10.82;;;9.18;;
48751;SDS011;34544;48.836;9.174;2023-02-13T11:23:39;14.85;;;8.27;;
48751;SDS011;34544;48.836;9.174;2023-02-13T11:26:15;13.77;;;9.60;;
48751;SDS011;34544;48.836;9.174;2023-02-13T11:28:49;12.15;;;9.25;;
48751;SDS011;34544;48.836;9.174;2023-02-13T11:33:58;11.65;;;8.13;;
48751;SDS011;34544;48.836;9.174;2023-02-13T11:36:41;10.65;;;7.72;;
48751;SDS011;34544;48.836;9.174;2023-02-13T11:39:20;10.85;;;8.90;;
48751;SDS011;34544;48.836;9.174;2023-02-13T11:41:50;10.32;;;8.23;;
48751;SDS011;34544;48.836;9.174;2023-02-13T11:44:20;9.02;;;7.68;;
48751;SDS011;34544;48.836;9.174;2023-02-13T11:46:53;10.63;;;7.80;;
48751;SDS011;34544;48.836;9.174;2023-02-13T11:54:34;12.52;;;7.45;;
48751;SDS011;34544;48.836;9.174;2023-02-13T11:57:02;9.23;;;7.75;;
48751;SDS011;34544;48.836;9.174;2023-02-13T11:59:48;10.10;;;8.48;;
48751;SDS011;34544;48.836;9.174;2023-02-13T12:02:22;8.55;;;7.18;;
48751;SDS011;34544;48.836;9.174;2023-02-13T12:04:54;8.63;;;7.72;;
48751;SDS011;34544;48.836;9.174;2023-02-13T12:07:38;11.05;;;8.68;;
48751;SDS011;34544;48.836;9.174;2023-02-13T12:10:22;7.93;;;7.13;;
48751;SDS011;34544;48.836;9.174;2023-02-13T12:15:39;12.57;;;8.80;;
48751;SDS011;34544;48.836;9.174;2023-02-13T12:26:22;11.80;;;8.45;;
48751;SDS011;34544;48.836;9.174;2023-02-13T12:32:16;11.25;;;9.10;;
48751;SDS011;34544;48.836;9.174;2023-02-13T12:35:06;13.00;;;8.75;;
48751;SDS011;34544;48.836;9.174;2023-02-13T12:38:06;10.50;;;8.23;;
48751;SDS011;34544;48.836;9.174;2023-02-13T12:43:44;14.20;;;9.02;;
48751;SDS011;34544;48.836;9.174;2023-02-13T12:59:58;11.35;;;9.25;;
48751;SDS011;34544;48.836;9.174;2023-02-13T13:02:53;15.63;;;10.65;;
48751;SDS011;34544;48.836;9.174;2023-02-13T13:05:25;13.57;;;10.93;;
48751;SDS011;34544;48.836;9.174;2023-02-13T13:26:56;11.68;;;9.70;;
48751;SDS011;34544;48.836;9.174;2023-02-13T13:29:24;13.75;;;9.73;;
48751;SDS011;34544;48.836;9.174;2023-02-13T13:32:04;10.40;;;9.30;;
48751;SDS011;34544;48.836;9.174;2023-02-13T13:34:33;12.27;;;9.48;;
48751;SDS011;34544;48.836;9.174;2023-02-13T13:39:52;12.50;;;9.45;;
48751;SDS011;34544;48.836;9.174;2023-02-13T13:48:20;14.52;;;10.00;;
48751;SDS011;34544;48.836;9.174;2023-02-13T13:50:49;10.73;;;8.65;;
48751;SDS011;34544;48.836;9.174;2023-02-13T13:53:16;10.32;;;8.82;;
48751;SDS011;34544;48.836;9.174;2023-02-13T14:01:14;10.82;;;8.13;;
48751;SDS011;34544;48.836;9.174;2023-02-13T14:03:41;8.55;;;7.40;;
48751;SDS011;34544;48.836;9.174;2023-02-13T14:06:09;14.60;;;8.75;;
48751;SDS011;34544;48.836;9.174;2023-02-13T14:11:05;11.90;;;7.45;;
48751;SDS011;34544;48.836;9.174;2023-02-13T14:13:48;10.75;;;7.53;;
48751;SDS011;34544;48.836;9.174;2023-02-13T14:16:19;11.23;;;6.80;;
48751;SDS011;34544;48.836;9.174;2023-02-13T14:19:02;9.38;;;8.07;;
48751;SDS011;34544;48.836;9.174;2023-02-13T14:21:29;11.35;;;9.27;;
48751;SDS011;34544;48.836;9.174;2023-02-13T14:23:54;9.80;;;8.48;;
48751;SDS011;34544;48.836;9.174;2023-02-13T14:26:32;11.07;;;8.80;;
48751;SDS011;34544;48.836;9.174;2023-02-13T14:29:33;17.90;;;9.25;;
48751;SDS011;34544;48.836;9.174;2023-02-13T14:34:31;12.98;;;8.00;;
48751;SDS011;34544;48.836;9.174;2023-02-13T14:39:32;9.40;;;7.97;;
48751;SDS011;34544;48.836;9.174;2023-02-13T14:42:22;9.95;;;7.80;;
48751;SDS011;34544;48.836;9.174;2023-02-13T14:45:00;12.50;;;8.60;;
48751;SDS011;34544;48.836;9.174;2023-02-13T14:47:36;11.00;;;7.72;;
48751;SDS011;34544;48.836;9.174;2023-02-13T14:50:07;10.75;;;8.32;;
48751;SDS011;34544;48.836;9.174;2023-02-13T14:52:42;9.35;;;7.65;;
48751;SDS011;34544;48.836;9.174;2023-02-13T14:55:27;13.23;;;8.10;;
48751;SDS011;34544;48.836;9.174;2023-02-13T14:58:15;10.27;;;8.65;;
48751;SDS011;34544;48.836;9.174;2023-02-13T15:00:58;11.55;;;7.68;;
48751;SDS011;34544;48.836;9.174;2023-02-13T15:05:56;15.77;;;8.63;;
48751;SDS011;34544;48.836;9.174;2023-02-13T15:08:28;16.23;;;8.75;;
48751;SDS011;34544;48.836;9.174;2023-02-13T15:10:58;9.07;;;7.35;;
48751;SDS011;34544;48.836;9.174;2023-02-13T15:13:31;12.43;;;9.48;;
48751;SDS011;34544;48.836;9.174;2023-02-13T15:16:05;13.38;;;8.77;;
48751;SDS011;34544;48.836;9.174;2023-02-13T15:18:49;11.27;;;8.45;;
48751;SDS011;34544;48.836;9.174;2023-02-13T15:21:20;12.18;;;8.57;;
48751;SDS011;34544;48.836;9.174;2023-02-13T15:23:51;13.70;;;8.93;;
48751;SDS011;34544;48.836;9.174;2023-02-13T15:26:22;10.82;;;8.93;;
48751;SDS011;34544;48.836;9.174;2023-02-13T15:28:58;15.15;;;9.35;;
48751;SDS011;34544;48.836;9.174;2023-02-13T15:31:29;11.20;;;8.23;;
48751;SDS011;34544;48.836;9.174;2023-02-13T15:33:57;16.40;;;8.75;;
48751;SDS011;34544;48.836;9.174;2023-02-13T15:36:32;21.13;;;10.10;;
48751;SDS011;34544;48.836;9.174;2023-02-13T15:39:02;11.80;;;8.77;;
48751;SDS011;34544;48.836;9.174;2023-02-13T15:41:37;13.32;;;8.77;;
48751;SDS011;34544;48.836;9.174;2023-02-13T15:44:14;12.75;;;8.85;;
48751;SDS011;34544;48.836;9.174;2023-02-13T15:46:45;11.38;;;8.63;;
48751;SDS011;34544;48.836;9.174;2023-02-13T15:49:13;11.65;;;7.55;;
48751;SDS011;34544;48.836;9.174;2023-02-13T15:51:40;12.60;;;8.48;;
48751;SDS011;34544;48.836;9.174;2023-02-13T15:54:21;11.95;;;8.25;;
48751;SDS011;34544;48.836;9.174;2023-02-13T15:56:47;11.27;;;8.50;;
48751;SDS011;34544;48.836;9.174;2023-02-13T15:59:14;12.80;;;7.97;;
48751;SDS011;34544;48.836;9.174;2023-02-13T16:01:42;13.90;;;9.00;;
48751;SDS011;34544;48.836;9.174;2023-02-13T16:04:11;13.45;;;8.60;;
48751;SDS011;34544;48.836;9.174;2023-02-13T16:06:42;12.20;;;8.18;;
48751;SDS011;34544;48.836;9.174;2023-02-13T16:09:23;12.02;;;7.93;;
48751;SDS011;34544;48.836;9.174;2023-02-13T16:12:03;11.45;;;8.57;;
48751;SDS011;34544;48.836;9.174;2023-02-13T16:14:32;15.93;;;8.25;;
48751;SDS011;34544;48.836;9.174;2023-02-13T16:27:58;11.85;;;8.50;;
48751;SDS011;34544;48.836;9.174;2023-02-13T16:35:40;14.25;;;9.55;;
48751;SDS011;34544;48.836;9.174;2023-02-13T16:40:48;12.02;;;8.98;;
48751;SDS011;34544;48.836;9.174;2023-02-13T16:43:33;13.35;;;9.45;;
48751;SDS011;34544;48.836;9.174;2023-02-13T16:46:12;15.98;;;9.10;;
48751;SDS011;34544;48.836;9.174;2023-02-13T16:48:49;19.75;;;9.13;;
48751;SDS011;34544;48.836;9.174;2023-02-13T16:53:55;15.50;;;10.10;;
48751;SDS011;34544;48.836;9.174;2023-02-13T16:56:24;17.65;;;10.18;;
48751;SDS011;34544;48.836;9.174;2023-02-13T16:59:01;17.55;;;10.93;;
48751;SDS011;34544;48.836;9.174;2023-02-13T17:02:00;14.07;;;10.38;;
48751;SDS011;34544;48.836;9.174;2023-02-13T17:04:56;20.13;;;11.27;;
48751;SDS011;34544;48.836;9.174;2023-02-13T17:07:55;18.48;;;10.45;;
48751;SDS011;34544;48.836;9.174;2023-02-13T17:10:31;19.65;;;11.82;;
48751;SDS011;34544;48.836;9.174;2023-02-13T17:13:14;19.42;;;11.07;;
48751;SDS011;34544;48.836;9.174;2023-02-13T17:15:43;15.40;;;9.63;;
48751;SDS011;34544;48.836;9.174;2023-02-13T17:18:11;15.93;;;9.90;;
48751;SDS011;34544;48.836;9.174;2023-02-13T17:20:37;19.88;;;10.80;;
48751;SDS011;34544;48.836;9.174;2023-02-13T17:23:06;22.23;;;10.15;;
48751;SDS011;34544;48.836;9.174;2023-02-13T17:25:37;16.85;;;10.27;;
48751;SDS011;34544;48.836;9.174;2023-02-13T17:28:09;16.45;;;10.40;;
48751;SDS011;34544;48.836;9.174;2023-02-13T17:30:47;20.35;;;11.27;;
48751;SDS011;34544;48.836;9.174;2023-02-13T17:33:21;17.75;;;10.82;;
48751;SDS011;34544;48.836;9.174;2023-02-13T17:35:47;20.33;;;11.95;;
48751;SDS011;34544;48.836;9.174;2023-02-13T17:38:13;17.20;;;11.13;;
48751;SDS011;34544;48.836;9.174;2023-02-13T17:40:39;26.52;;;12.27;;
48751;SDS011;34544;48.836;9.174;2023-02-13T17:43:10;18.17;;;11.77;;